createdAt,value
2023-01-19T00:00:40.403Z,72.45
2023-01-19T00:03:15.864Z,72.87
2023-01-19T00:05:44.077Z,72.92
2023-01-19T00:08:15.112Z,72.63
2023-01-19T00:10:54.075Z,73.10
2023-01-19T00:13:21.075Z,72.76
2023-01-19T00:15:48.040Z,72.40
2023-01-19T00:18:14.955Z,73.07
2023-01-19T00:20:42.080Z,72.77
2023-01-19T00:23:09.563Z,72.26
2023-01-19T00:25:42.714Z,71.84
2023-01-19T00:28:11.796Z,71.50
2023-01-19T00:30:39.651Z,70.82
2023-01-19T00:33:06.530Z,71.53
2023-01-19T00:35:34.723Z,72.47
2023-01-19T00:38:02.702Z,72.34
2023-01-19T00:40:29.684Z,72.37
2023-01-19T00:42:56.600Z,71.54
2023-01-19T00:45:24.692Z,71.61
2023-01-19T00:47:57.222Z,72.62
2023-01-19T00:50:25.763Z,72.96
2023-01-19T00:52:54.202Z,73.02
2023-01-19T00:55:21.813Z,73.32
2023-01-19T00:57:49.169Z,73.47
2023-01-19T01:00:19.600Z,72.72
2023-01-19T01:02:47.556Z,72.62
2023-01-19T01:05:14.736Z,73.33
2023-01-19T01:07:43.079Z,73.72
2023-01-19T01:10:22.300Z,73.54
2023-01-19T01:13:20.553Z,73.29
2023-01-19T01:15:36.668Z,72.87
2023-01-19T01:18:03.665Z,73.17
2023-01-19T01:20:31.247Z,73.48
2023-01-19T01:22:58.713Z,73.17
2023-01-19T01:25:27.599Z,72.89
2023-01-19T01:27:55.244Z,72.78
2023-01-19T01:30:22.890Z,73.08
2023-01-19T01:32:50.167Z,72.31
2023-01-19T01:35:17.192Z,72.94
2023-01-19T01:37:44.194Z,73.37
2023-01-19T01:40:14.626Z,73.84
2023-01-19T01:42:42.726Z,73.32
2023-01-19T01:45:28.696Z,73.11
2023-01-19T01:48:03.602Z,73.46
2023-01-19T01:50:34.312Z,73.54
2023-01-19T01:53:07.506Z,73.95
2023-01-19T01:55:49.320Z,73.71
2023-01-19T01:58:16.742Z,73.50
2023-01-19T02:01:02.545Z,73.24
2023-01-19T02:03:30.097Z,73.11
2023-01-19T02:06:00.871Z,72.92
2023-01-19T02:08:59.650Z,73.16
2023-01-19T02:11:46.283Z,73.15
2023-01-19T02:14:13.290Z,73.45
2023-01-19T02:16:40.379Z,73.24
2023-01-19T02:19:12.840Z,72.93
2023-01-19T02:21:54.411Z,72.97
2023-01-19T02:24:21.957Z,73.23
2023-01-19T02:26:49.331Z,72.80
2023-01-19T02:29:21.387Z,72.44
2023-01-19T02:31:48.483Z,72.61
2023-01-19T02:34:18.265Z,72.32
2023-01-19T02:36:50.878Z,71.82
2023-01-19T02:39:21.002Z,72.52
2023-01-19T02:41:55.842Z,72.27
2023-01-19T02:44:24.642Z,72.14
2023-01-19T02:46:54.374Z,72.37
2023-01-19T02:49:21.372Z,71.92
2023-01-19T02:51:49.130Z,72.31
2023-01-19T02:54:27.807Z,72.97
2023-01-19T02:57:23.726Z,72.54
2023-01-19T03:00:02.161Z,72.13
2023-01-19T03:03:03.681Z,72.05
2023-01-19T03:05:57.486Z,71.34
2023-01-19T03:08:52.347Z,71.46
2023-01-19T03:11:19.255Z,72.05
2023-01-19T03:13:50.192Z,72.24
2023-01-19T03:16:30.119Z,72.30
2023-01-19T03:19:06.062Z,71.99
2023-01-19T03:21:36.256Z,71.84
2023-01-19T03:24:06.668Z,72.10
2023-01-19T03:26:41.272Z,72.61
2023-01-19T03:29:10.629Z,72.46
2023-01-19T03:31:38.689Z,72.32
2023-01-19T03:34:08.373Z,72.32
2023-01-19T03:36:47.665Z,71.05
2023-01-19T03:39:19.969Z,71.50
2023-01-19T03:41:50.049Z,71.81
2023-01-19T03:44:17.449Z,71.90
2023-01-19T03:46:46.563Z,71.51
2023-01-19T03:49:13.933Z,71.87
2023-01-19T03:51:40.876Z,71.44
2023-01-19T03:54:10.416Z,71.42
2023-01-19T03:56:38.096Z,72.23
2023-01-19T03:59:08.085Z,71.92
2023-01-19T04:01:35.102Z,72.12
2023-01-19T04:04:02.146Z,71.81
2023-01-19T04:06:29.174Z,71.20
2023-01-19T04:08:56.122Z,71.67
2023-01-19T04:11:23.153Z,71.64
2023-01-19T04:13:50.375Z,72.20
2023-01-19T04:16:20.624Z,72.15
2023-01-19T04:18:48.558Z,72.34
2023-01-19T04:21:16.195Z,71.82
2023-01-19T04:23:44.546Z,71.87
2023-01-19T04:26:11.491Z,72.80
2023-01-19T04:28:39.099Z,72.28
2023-01-19T04:31:07.347Z,72.29
2023-01-19T04:33:34.801Z,72.00
2023-01-19T04:36:02.165Z,71.70
2023-01-19T04:38:29.023Z,71.72
2023-01-19T04:40:55.965Z,71.86
2023-01-19T04:43:24.033Z,72.48
2023-01-19T04:45:51.420Z,72.70
2023-01-19T04:48:18.889Z,72.07
2023-01-19T04:50:46.606Z,72.42
2023-01-19T04:53:13.907Z,72.23
2023-01-19T04:55:41.089Z,72.24
2023-01-19T04:58:08.163Z,72.25
2023-01-19T05:00:35.124Z,72.65
2023-01-19T05:03:02.450Z,72.82
2023-01-19T05:05:29.843Z,72.78
2023-01-19T05:07:56.894Z,73.12
2023-01-19T05:10:24.057Z,72.67
2023-01-19T05:12:51.429Z,72.92
2023-01-19T05:15:18.778Z,72.96
2023-01-19T05:17:45.841Z,73.17
2023-01-19T05:20:16.105Z,73.31
2023-01-19T05:22:48.413Z,72.91
2023-01-19T05:25:15.300Z,72.22
2023-01-19T05:27:42.249Z,72.37
2023-01-19T05:30:10.050Z,72.27
2023-01-19T05:32:36.968Z,72.91
2023-01-19T05:35:04.096Z,72.55
2023-01-19T05:37:32.770Z,72.81
2023-01-19T05:39:59.785Z,72.45
2023-01-19T05:42:26.651Z,72.42
2023-01-19T05:44:53.538Z,72.95
2023-01-19T05:47:20.423Z,73.29
2023-01-19T05:49:47.273Z,72.81
2023-01-19T05:52:15.010Z,72.75
2023-01-19T05:54:41.924Z,72.79
2023-01-19T05:57:09.011Z,72.43
2023-01-19T05:59:35.887Z,72.39
2023-01-19T06:02:02.988Z,73.32
2023-01-19T06:04:30.247Z,73.72
2023-01-19T06:06:57.411Z,73.76
2023-01-19T06:09:24.308Z,73.57
2023-01-19T06:11:51.217Z,72.55
2023-01-19T06:14:18.127Z,72.62
2023-01-19T06:16:45.066Z,72.64
2023-01-19T06:19:12.085Z,73.37
2023-01-19T06:21:38.986Z,72.83
2023-01-19T06:24:06.293Z,72.88
2023-01-19T06:26:33.155Z,72.87
2023-01-19T06:29:00.025Z,71.68
2023-01-19T06:31:26.908Z,71.09
2023-01-19T06:33:53.864Z,71.21
2023-01-19T06:36:20.782Z,71.44
2023-01-19T06:38:47.840Z,71.51
2023-01-19T06:41:14.936Z,71.95
2023-01-19T06:43:41.780Z,71.25
2023-01-19T06:46:08.904Z,71.39
2023-01-19T06:48:35.803Z,71.76
2023-01-19T06:51:02.733Z,72.19
2023-01-19T06:53:30.369Z,72.16
2023-01-19T06:56:03.159Z,71.91
2023-01-19T06:58:31.884Z,72.41
2023-01-19T07:01:06.178Z,71.71
2023-01-19T07:03:34.550Z,72.61
2023-01-19T07:06:06.771Z,73.01
2023-01-19T07:08:35.099Z,72.69
2023-01-19T07:11:26.519Z,73.02
2023-01-19T07:13:55.455Z,72.60
2023-01-19T07:16:22.765Z,71.97
2023-01-19T07:18:50.261Z,72.05
2023-01-19T07:21:17.660Z,72.22
2023-01-19T07:23:44.923Z,71.78
2023-01-19T07:26:11.882Z,71.51
2023-01-19T07:28:38.771Z,71.30
2023-01-19T07:31:05.882Z,70.19
2023-01-19T07:33:33.184Z,69.69
2023-01-19T07:36:00.060Z,69.57
2023-01-19T07:38:27.050Z,69.03
2023-01-19T07:41:05.197Z,68.41
2023-01-19T07:43:33.044Z,68.91
2023-01-19T07:46:01.717Z,68.15
2023-01-19T07:48:29.549Z,67.74
2023-01-19T07:51:13.104Z,67.61
2023-01-19T07:53:41.991Z,67.33
2023-01-19T07:56:09.363Z,66.68
2023-01-19T07:58:36.646Z,65.58
2023-01-19T08:01:12.615Z,65.09
2023-01-19T08:03:40.372Z,64.78
2023-01-19T08:06:07.811Z,64.16
2023-01-19T08:08:35.136Z,63.82
2023-01-19T08:11:02.029Z,63.66
2023-01-19T08:13:28.979Z,64.26
2023-01-19T08:15:55.956Z,63.55
2023-01-19T08:18:22.802Z,63.43
2023-01-19T08:20:49.897Z,62.96
2023-01-19T08:23:18.252Z,62.56
2023-01-19T08:25:46.110Z,62.37
2023-01-19T08:28:18.335Z,62.25
2023-01-19T08:30:45.810Z,61.60
2023-01-19T08:33:13.913Z,61.00
2023-01-19T08:35:43.526Z,60.26
2023-01-19T08:38:11.121Z,60.46
2023-01-19T08:40:40.458Z,60.44
2023-01-19T08:43:10.514Z,60.34
2023-01-19T08:45:48.180Z,60.23
2023-01-19T08:48:17.273Z,60.55
2023-01-19T08:50:47.045Z,61.07
2023-01-19T08:53:14.753Z,61.86
2023-01-19T08:55:42.190Z,61.73
2023-01-19T08:58:09.568Z,62.18
2023-01-19T09:00:38.142Z,62.21
2023-01-19T09:03:11.580Z,62.20
2023-01-19T09:05:39.133Z,61.61
2023-01-19T09:08:11.374Z,61.71
2023-01-19T09:10:39.361Z,62.11
2023-01-19T09:13:10.966Z,62.57
2023-01-19T09:15:39.326Z,62.38
2023-01-19T09:18:10.356Z,62.25
2023-01-19T09:20:39.166Z,62.12
2023-01-19T09:23:06.419Z,61.69
2023-01-19T09:25:33.364Z,62.04
2023-01-19T09:28:01.134Z,61.99
2023-01-19T09:30:28.587Z,61.62
2023-01-19T09:32:55.515Z,61.88
2023-01-19T09:35:22.421Z,61.22
2023-01-19T09:37:49.493Z,61.17
2023-01-19T09:40:20.745Z,61.26
2023-01-19T09:43:32.897Z,61.55
2023-01-19T10:17:52.542Z,60.53
2023-01-19T10:20:29.053Z,59.69
2023-01-19T10:22:57.227Z,58.03
2023-01-19T10:25:24.606Z,57.53
2023-01-19T10:27:51.913Z,57.20
2023-01-19T10:30:26.394Z,56.42
2023-01-19T10:32:53.615Z,57.35
2023-01-19T10:35:25.246Z,56.46
2023-01-19T10:37:56.505Z,56.38
2023-01-19T10:40:56.693Z,55.68
2023-01-19T10:43:41.919Z,55.07
2023-01-19T10:46:45.788Z,54.81
2023-01-19T10:49:44.860Z,54.75
2023-01-19T10:52:33.039Z,54.85
2023-01-19T10:55:02.429Z,54.89
2023-01-19T10:57:33.273Z,54.93
2023-01-19T11:00:00.271Z,54.58
2023-01-19T11:02:29.735Z,53.95
2023-01-19T11:05:02.226Z,53.99
2023-01-19T11:07:34.153Z,53.55
2023-01-19T11:10:16.180Z,54.14
2023-01-19T11:13:01.921Z,54.79
2023-01-19T11:15:33.927Z,54.92
2023-01-19T11:18:03.137Z,54.73
2023-01-19T11:20:44.149Z,55.22
2023-01-19T11:23:25.038Z,55.37
2023-01-19T11:25:54.388Z,55.49
2023-01-19T11:28:26.633Z,55.82
2023-01-19T11:31:19.690Z,55.59
2023-01-19T11:33:54.778Z,55.86
2023-01-19T11:36:27.582Z,55.54
2023-01-19T11:38:57.642Z,55.16
2023-01-19T11:41:33.289Z,55.73
2023-01-19T11:44:16.196Z,55.74
2023-01-19T11:46:45.223Z,55.46
2023-01-19T11:49:20.487Z,55.17
2023-01-19T11:52:05.514Z,54.49
2023-01-19T11:54:40.714Z,54.24
2023-01-19T11:57:13.817Z,54.36
2023-01-19T11:59:40.968Z,54.12
2023-01-19T12:02:27.865Z,54.06
2023-01-19T12:05:06.466Z,54.30
2023-01-19T12:07:36.810Z,54.62
2023-01-19T12:10:31.963Z,52.96
2023-01-19T12:13:00.517Z,52.55
2023-01-19T12:15:37.082Z,52.86
2023-01-19T12:18:06.823Z,52.85
2023-01-19T12:20:47.653Z,52.64
2023-01-19T12:23:20.602Z,53.01
2023-01-19T12:26:08.944Z,52.16
2023-01-19T12:28:40.257Z,52.25
2023-01-19T12:31:08.492Z,51.85
2023-01-19T12:33:40.155Z,50.83
2023-01-19T12:36:09.940Z,50.57
2023-01-19T12:38:54.103Z,50.36
2023-01-19T12:41:22.978Z,51.24
2023-01-19T12:44:09.801Z,50.77
2023-01-19T12:46:47.878Z,51.34
2023-01-19T12:49:28.331Z,50.92
2023-01-19T12:52:36.558Z,50.35
2023-01-19T12:55:15.457Z,50.50
2023-01-19T12:58:24.268Z,50.10
2023-01-19T13:01:19.353Z,49.81
2023-01-19T13:03:58.353Z,50.58
2023-01-19T13:06:48.573Z,50.66
2023-01-19T13:09:37.177Z,50.50
2023-01-19T13:12:24.105Z,50.66
2023-01-19T13:14:51.047Z,50.56
2023-01-19T13:17:23.700Z,51.54
2023-01-19T13:19:56.724Z,51.32
2023-01-19T13:22:51.036Z,51.20
2023-01-19T13:25:31.617Z,50.92
2023-01-19T13:27:59.090Z,49.82
2023-01-19T13:30:28.485Z,49.52
2023-01-19T13:33:07.008Z,49.34
2023-01-19T13:35:34.278Z,50.10
2023-01-19T13:38:02.069Z,49.97
2023-01-19T13:40:38.728Z,49.88
2023-01-19T13:43:15.381Z,50.28
2023-01-19T13:45:53.130Z,50.31
2023-01-19T13:48:22.716Z,50.24
2023-01-19T13:51:07.199Z,49.97
2023-01-19T13:53:34.606Z,50.68
2023-01-19T13:56:07.881Z,50.65
2023-01-19T13:58:35.154Z,51.05
2023-01-19T14:01:02.302Z,50.49
2023-01-19T14:03:29.361Z,50.91
2023-01-19T14:05:56.392Z,50.76
2023-01-19T14:08:25.809Z,51.33
2023-01-19T14:10:56.502Z,51.52
2023-01-19T14:13:32.721Z,51.57
2023-01-19T14:16:04.688Z,51.93
2023-01-19T14:18:36.261Z,51.26
2023-01-19T14:21:07.947Z,51.56
2023-01-19T14:23:45.588Z,51.48
2023-01-19T14:26:37.544Z,51.06
2023-01-19T14:29:10.364Z,51.13
2023-01-19T14:31:53.160Z,51.38
2023-01-19T14:34:40.075Z,51.33
2023-01-19T14:37:22.287Z,51.77
2023-01-19T14:39:56.563Z,51.48
2023-01-19T14:42:32.652Z,51.01
2023-01-19T14:45:02.876Z,51.30
2023-01-19T14:47:37.291Z,51.76
2023-01-19T14:50:10.927Z,52.15
2023-01-19T14:52:41.918Z,51.83
2023-01-19T14:55:21.251Z,51.88
2023-01-19T14:57:48.634Z,52.37
2023-01-19T15:00:19.179Z,52.56
2023-01-19T15:02:47.184Z,52.14
2023-01-19T15:05:14.838Z,52.54
2023-01-19T15:07:45.958Z,52.95
2023-01-19T15:10:18.493Z,52.96
2023-01-19T15:12:45.531Z,53.21
2023-01-19T15:15:25.866Z,52.97
2023-01-19T15:17:56.056Z,53.05
2023-01-19T15:20:23.996Z,52.95
2023-01-19T15:22:51.004Z,52.51
2023-01-19T15:25:26.206Z,52.76
2023-01-19T15:27:53.381Z,52.82
2023-01-19T15:30:24.019Z,53.23
2023-01-19T15:32:51.664Z,53.45
2023-01-19T15:35:21.313Z,53.40
2023-01-19T15:37:49.116Z,53.63
2023-01-19T15:40:17.625Z,53.35
2023-01-19T15:42:44.834Z,53.11
2023-01-19T15:45:42.121Z,53.87
2023-01-19T15:48:13.133Z,53.28
2023-01-19T15:50:45.262Z,54.70
2023-01-19T15:53:15.249Z,54.57
2023-01-19T15:55:42.631Z,54.44
2023-01-19T15:58:12.068Z,54.16
2023-01-19T16:00:40.078Z,54.49
2023-01-19T16:03:07.160Z,54.41
2023-01-19T16:05:42.668Z,53.95
2023-01-19T16:08:14.556Z,54.47
2023-01-19T16:10:42.228Z,54.99
2023-01-19T16:13:11.769Z,55.33
2023-01-19T16:15:42.335Z,54.97
2023-01-19T16:18:09.304Z,54.97
2023-01-19T16:20:36.146Z,55.18
2023-01-19T16:23:21.118Z,55.05
2023-01-19T16:26:07.880Z,55.48
2023-01-19T16:28:37.390Z,55.06
2023-01-19T16:31:04.767Z,55.38
2023-01-19T16:33:31.687Z,55.40
2023-01-19T16:35:58.619Z,55.75
2023-01-19T16:38:25.537Z,55.44
2023-01-19T16:40:52.375Z,55.92
2023-01-19T16:43:19.364Z,56.05
2023-01-19T16:46:00.857Z,56.30
2023-01-19T16:48:28.176Z,56.17
2023-01-19T16:51:02.401Z,56.84
2023-01-19T16:53:30.486Z,56.68
2023-01-19T16:55:57.482Z,57.10
2023-01-19T16:58:24.606Z,57.50
2023-01-19T17:00:51.602Z,57.22
2023-01-19T17:03:18.523Z,57.09
2023-01-19T17:05:49.916Z,57.00
2023-01-19T17:08:20.687Z,57.33
2023-01-19T17:10:48.258Z,57.13
2023-01-19T17:13:15.483Z,57.17
2023-01-19T17:15:43.349Z,57.00
2023-01-19T17:18:10.378Z,57.13
2023-01-19T17:20:37.635Z,57.42
2023-01-19T17:23:04.619Z,56.83
2023-01-19T17:25:31.603Z,56.85
2023-01-19T17:28:01.689Z,57.02
2023-01-19T17:30:28.728Z,57.08
2023-01-19T17:32:55.734Z,57.10
2023-01-19T17:35:22.599Z,57.55
2023-01-19T17:37:53.636Z,57.77
2023-01-19T17:40:20.733Z,57.70
2023-01-19T17:42:48.124Z,57.82
2023-01-19T17:45:15.085Z,57.67
2023-01-19T17:47:41.996Z,57.38
2023-01-19T17:50:09.734Z,57.22
2023-01-19T17:52:36.924Z,57.82
2023-01-19T17:55:04.040Z,58.20
2023-01-19T17:57:30.994Z,58.36
2023-01-19T17:59:57.863Z,58.56
2023-01-19T18:02:26.136Z,58.38
2023-01-19T18:04:53.258Z,58.69
2023-01-19T18:07:20.322Z,58.77
2023-01-19T18:09:47.303Z,59.05
2023-01-19T18:12:14.288Z,59.10
2023-01-19T18:14:41.567Z,59.28
2023-01-19T18:17:08.629Z,59.38
2023-01-19T18:19:35.627Z,59.03
2023-01-19T18:22:02.743Z,58.89
2023-01-19T18:24:29.867Z,58.86
2023-01-19T18:26:56.750Z,59.00
2023-01-19T18:29:23.832Z,59.64
2023-01-19T18:31:50.832Z,59.41
2023-01-19T18:34:17.823Z,59.76
2023-01-19T18:36:44.865Z,59.69
2023-01-19T18:39:12.143Z,59.96
2023-01-19T18:41:42.294Z,59.35
2023-01-19T18:44:10.249Z,59.38
2023-01-19T18:46:38.610Z,59.98
2023-01-19T18:49:06.044Z,59.79
2023-01-19T18:51:32.989Z,59.31
2023-01-19T18:54:00.481Z,59.84
2023-01-19T18:56:27.620Z,59.88
2023-01-19T18:58:54.905Z,59.62
2023-01-19T19:01:26.042Z,60.00
2023-01-19T19:03:55.049Z,60.13
2023-01-19T19:06:23.551Z,60.32
2023-01-19T19:08:56.174Z,60.36
2023-01-19T19:11:25.429Z,60.16
2023-01-19T19:13:54.137Z,60.09
2023-01-19T19:16:21.057Z,60.23
2023-01-19T19:18:51.042Z,60.52
2023-01-19T19:21:19.384Z,60.06
2023-01-19T19:23:53.966Z,60.08
2023-01-19T19:26:21.384Z,60.21
2023-01-19T19:28:48.457Z,60.74
2023-01-19T19:31:20.703Z,60.84
2023-01-19T19:33:49.080Z,60.20
2023-01-19T19:36:16.085Z,60.73
2023-01-19T19:38:44.554Z,60.97
2023-01-19T19:41:18.101Z,60.53
2023-01-19T19:43:45.090Z,60.84
2023-01-19T19:46:14.322Z,61.27
2023-01-19T19:48:41.764Z,60.90
2023-01-19T19:51:18.393Z,61.16
2023-01-19T19:53:47.872Z,61.31
2023-01-19T19:56:16.143Z,62.03
2023-01-19T19:58:43.546Z,62.10
2023-01-19T20:01:16.216Z,61.66
2023-01-19T20:03:44.197Z,61.85
2023-01-19T20:06:18.162Z,61.99
2023-01-19T20:08:45.159Z,62.23
2023-01-19T20:11:15.040Z,62.40
2023-01-19T20:13:44.408Z,62.70
2023-01-19T20:16:15.140Z,62.61
2023-01-19T20:18:48.529Z,63.02
2023-01-19T20:21:19.654Z,63.22
2023-01-19T20:23:47.474Z,63.08
2023-01-19T20:26:16.682Z,63.39
2023-01-19T20:28:43.695Z,63.43
2023-01-19T20:31:26.603Z,63.45
2023-01-19T20:33:55.758Z,63.67
2023-01-19T20:36:24.426Z,63.69
2023-01-19T20:38:54.987Z,63.20
2023-01-19T20:41:23.193Z,63.35
2023-01-19T20:43:50.886Z,63.88
2023-01-19T20:46:18.498Z,63.59
2023-01-19T20:48:50.860Z,63.80
2023-01-19T20:51:19.044Z,63.74
2023-01-19T20:53:46.314Z,63.42
2023-01-19T20:56:14.962Z,63.25
2023-01-19T20:58:42.223Z,63.33
2023-01-19T21:01:14.482Z,63.68
2023-01-19T21:03:42.431Z,63.59
2023-01-19T21:06:09.847Z,63.65
2023-01-19T21:08:37.920Z,63.53
2023-01-19T21:11:05.843Z,63.22
2023-01-19T21:13:33.114Z,63.43
2023-01-19T21:16:00.461Z,63.38
2023-01-19T21:18:28.105Z,63.65
2023-01-19T21:20:57.559Z,63.88
2023-01-19T21:23:25.869Z,63.23
2023-01-19T21:25:54.616Z,62.83
2023-01-19T21:28:23.056Z,63.08
2023-01-19T21:30:50.902Z,63.41
2023-01-19T21:33:18.553Z,63.36
2023-01-19T21:35:56.892Z,63.58
2023-01-19T21:38:28.492Z,63.89
2023-01-19T21:40:56.717Z,63.87
2023-01-19T21:43:24.953Z,63.49
2023-01-19T21:45:52.240Z,63.09
2023-01-19T21:48:19.872Z,63.61
2023-01-19T21:50:55.738Z,63.55
2023-01-19T21:53:22.621Z,63.39
2023-01-19T21:55:49.653Z,63.32
2023-01-19T21:58:16.610Z,62.81
2023-01-19T22:00:43.643Z,62.83
2023-01-19T22:03:10.987Z,62.77
2023-01-19T22:05:37.997Z,62.68
2023-01-19T22:08:06.558Z,62.73
2023-01-19T22:10:37.610Z,62.55
2023-01-19T22:13:06.722Z,62.50
2023-01-19T22:15:33.889Z,62.26
2023-01-19T22:18:00.812Z,62.19
2023-01-19T22:20:28.085Z,61.42
2023-01-19T22:22:56.153Z,61.83
2023-01-19T22:25:28.055Z,62.04
2023-01-19T22:27:56.420Z,62.02
2023-01-19T22:30:23.435Z,61.50
2023-01-19T22:32:50.613Z,61.81
2023-01-19T22:35:17.584Z,61.19
2023-01-19T22:37:44.455Z,61.45
2023-01-19T22:40:11.902Z,61.02
2023-01-19T22:42:38.852Z,61.42
2023-01-19T22:45:06.238Z,61.39
2023-01-19T22:47:33.206Z,61.40
2023-01-19T22:50:00.116Z,60.96
2023-01-19T22:52:27.117Z,61.18
2023-01-19T22:54:56.423Z,60.97
2023-01-19T22:57:23.361Z,61.19
2023-01-19T22:59:50.261Z,61.32
2023-01-19T23:02:18.620Z,61.79
2023-01-19T23:04:47.423Z,61.69
2023-01-19T23:07:14.543Z,61.53
2023-01-19T23:09:41.568Z,61.31
2023-01-19T23:12:08.484Z,61.06
2023-01-19T23:14:36.365Z,61.29
2023-01-19T23:17:03.397Z,61.46
2023-01-19T23:19:30.319Z,61.19
2023-01-19T23:21:57.231Z,61.35
2023-01-19T23:24:24.130Z,61.46
2023-01-19T23:26:51.442Z,61.33
2023-01-19T23:29:19.704Z,61.39
2023-01-19T23:31:49.623Z,61.06
2023-01-19T23:34:17.582Z,61.21
2023-01-19T23:36:44.810Z,61.56
2023-01-19T23:39:18.669Z,60.98
2023-01-19T23:41:46.420Z,61.22
2023-01-19T23:44:13.504Z,61.11
2023-01-19T23:46:40.475Z,61.26
2023-01-19T23:49:07.376Z,61.15
2023-01-19T23:51:34.675Z,61.19
2023-01-19T23:54:01.819Z,61.59
2023-01-19T23:56:31.850Z,61.51
2023-01-19T23:59:01.839Z,61.56
